Colon, North Carolina
Current Conditions -  °F | °C
As of 11:35 AM on Wednesday 22 Oct 2014 (Local Time) from KTTA Reporting Station
Clear Clear  
Wind Chill: 61°   Ceiling: Unl
Heat Index: 61°   Visibility: 10mi
Dew Point: 42°   Wind: 14mph
Humidity: 48%   Direction: 330°NNW
Pressure: 30.01"   Gusts: 17mph
Location:  35.493°N, 79.1765°W
Report Text: KTTA 221535Z AUTO 33012G15KT 10SM CLR 16/05 A3001 RMK AO2 T01630053
Loading
Personal Weather Stations






























Interactive Weather Map
Tropical Storm Tracking
New forecast layout! Learn more

10-Day Weather Forecast

Advertisements
Track Severe Weather on mobile